sensor_id;sensor_type;location;lat;lon;timestamp;pressure;altitude;pressure_sealevel;temperature;humidity
57644;BME280;43474;46.510;6.686;2023-05-22T00:02:12;96250.84;;;14.15;100.00
57644;BME280;43474;46.510;6.686;2023-05-22T00:04:38;96227.63;;;14.06;100.00
57644;BME280;43474;46.510;6.686;2023-05-22T00:07:04;96234.34;;;14.18;100.00
57644;BME280;43474;46.510;6.686;2023-05-22T00:09:31;96245.53;;;14.31;100.00
57644;BME280;43474;46.510;6.686;2023-05-22T00:11:57;96229.25;;;14.22;100.00
57644;BME280;43474;46.510;6.686;2023-05-22T00:14:22;96245.53;;;14.26;100.00
57644;BME280;43474;46.510;6.686;2023-05-22T00:16:48;96243.91;;;14.09;100.00
57644;BME280;43474;46.510;6.686;2023-05-22T00:19:14;96212.94;;;13.83;100.00
57644;BME280;43474;46.510;6.686;2023-05-22T00:21:41;96228.16;;;13.98;100.00
57644;BME280;43474;46.510;6.686;2023-05-22T00:24:08;96235.34;;;14.02;100.00
57644;BME280;43474;46.510;6.686;2023-05-22T00:26:34;96230.56;;;14.09;100.00
57644;BME280;43474;46.510;6.686;2023-05-22T00:28:59;96241.78;;;14.16;100.00
57644;BME280;43474;46.510;6.686;2023-05-22T00:31:25;96243.94;;;14.25;100.00
57644;BME280;43474;46.510;6.686;2023-05-22T00:33:50;96236.16;;;14.03;100.00
57644;BME280;43474;46.510;6.686;2023-05-22T00:36:16;96230.06;;;14.07;100.00
57644;BME280;43474;46.510;6.686;2023-05-22T00:38:43;96236.94;;;13.98;100.00
57644;BME280;43474;46.510;6.686;2023-05-22T00:41:09;96237.50;;;14.10;100.00
57644;BME280;43474;46.510;6.686;2023-05-22T00:43:34;96223.63;;;13.93;100.00
57644;BME280;43474;46.510;6.686;2023-05-22T00:46:01;96232.41;;;13.99;100.00
57644;BME280;43474;46.510;6.686;2023-05-22T00:48:26;96238.25;;;13.95;100.00
57644;BME280;43474;46.510;6.686;2023-05-22T00:50:55;96221.97;;;13.82;100.00
57644;BME280;43474;46.510;6.686;2023-05-22T00:53:23;96231.59;;;13.88;100.00
57644;BME280;43474;46.510;6.686;2023-05-22T00:55:51;96236.66;;;13.89;100.00
57644;BME280;43474;46.510;6.686;2023-05-22T00:58:17;96230.75;;;13.82;100.00
57644;BME280;43474;46.510;6.686;2023-05-22T01:00:44;96234.19;;;13.67;100.00
57644;BME280;43474;46.510;6.686;2023-05-22T01:03:10;96220.31;;;13.65;100.00
57644;BME280;43474;46.510;6.686;2023-05-22T01:05:37;96226.22;;;13.73;100.00
57644;BME280;43474;46.510;6.686;2023-05-22T01:08:04;96224.06;;;13.69;100.00
57644;BME280;43474;46.510;6.686;2023-05-22T01:10:32;96219.56;;;13.80;100.00
57644;BME280;43474;46.510;6.686;2023-05-22T01:18:06;96211.03;;;13.78;100.00
57644;BME280;43474;46.510;6.686;2023-05-22T01:21:20;96220.66;;;13.84;100.00
57644;BME280;43474;46.510;6.686;2023-05-22T01:29:41;96207.78;;;13.66;100.00
57644;BME280;43474;46.510;6.686;2023-05-22T01:32:09;96221.13;;;13.71;100.00
57644;BME280;43474;46.510;6.686;2023-05-22T01:34:37;96213.91;;;13.66;100.00
57644;BME280;43474;46.510;6.686;2023-05-22T01:37:06;96212.56;;;13.59;100.00
57644;BME280;43474;46.510;6.686;2023-05-22T01:39:32;96228.81;;;13.62;100.00
57644;BME280;43474;46.510;6.686;2023-05-22T01:41:58;96220.25;;;13.50;100.00
57644;BME280;43474;46.510;6.686;2023-05-22T01:44:24;96230.63;;;13.52;100.00
57644;BME280;43474;46.510;6.686;2023-05-22T01:46:50;96213.81;;;13.41;100.00
57644;BME280;43474;46.510;6.686;2023-05-22T01:49:15;96219.69;;;13.38;100.00
57644;BME280;43474;46.510;6.686;2023-05-22T01:54:22;96233.50;;;13.35;100.00
57644;BME280;43474;46.510;6.686;2023-05-22T01:56:55;96217.75;;;13.28;100.00
57644;BME280;43474;46.510;6.686;2023-05-22T01:59:44;96234.00;;;13.37;100.00
57644;BME280;43474;46.510;6.686;2023-05-22T02:02:14;96222.88;;;13.40;100.00
57644;BME280;43474;46.510;6.686;2023-05-22T02:04:42;96219.66;;;13.33;100.00
57644;BME280;43474;46.510;6.686;2023-05-22T02:07:11;96218.03;;;13.37;100.00
57644;BME280;43474;46.510;6.686;2023-05-22T02:09:37;96224.19;;;13.42;100.00
57644;BME280;43474;46.510;6.686;2023-05-22T02:12:05;96221.50;;;13.37;100.00
57644;BME280;43474;46.510;6.686;2023-05-22T02:14:31;96223.41;;;13.42;100.00
57644;BME280;43474;46.510;6.686;2023-05-22T02:16:57;96206.13;;;13.44;100.00
57644;BME280;43474;46.510;6.686;2023-05-22T02:19:23;96212.25;;;13.45;100.00
57644;BME280;43474;46.510;6.686;2023-05-22T02:21:48;96213.03;;;13.45;100.00
57644;BME280;43474;46.510;6.686;2023-05-22T02:24:14;96209.84;;;13.43;100.00
57644;BME280;43474;46.510;6.686;2023-05-22T02:26:40;96212.28;;;13.55;100.00
57644;BME280;43474;46.510;6.686;2023-05-22T02:29:07;96217.06;;;13.48;100.00
57644;BME280;43474;46.510;6.686;2023-05-22T02:31:32;96214.16;;;13.60;100.00
57644;BME280;43474;46.510;6.686;2023-05-22T02:33:58;96214.16;;;13.60;100.00
57644;BME280;43474;46.510;6.686;2023-05-22T02:36:24;96216.81;;;13.55;100.00
57644;BME280;43474;46.510;6.686;2023-05-22T02:38:50;96211.19;;;13.51;100.00
57644;BME280;43474;46.510;6.686;2023-05-22T02:41:17;96225.34;;;13.62;100.00
57644;BME280;43474;46.510;6.686;2023-05-22T02:43:42;96219.75;;;13.58;100.00
57644;BME280;43474;46.510;6.686;2023-05-22T02:46:08;96202.16;;;13.52;100.00
57644;BME280;43474;46.510;6.686;2023-05-22T02:48:33;96205.88;;;13.51;100.00
57644;BME280;43474;46.510;6.686;2023-05-22T02:50:59;96222.13;;;13.50;100.00
57644;BME280;43474;46.510;6.686;2023-05-22T02:53:25;96212.72;;;13.37;100.00
57644;BME280;43474;46.510;6.686;2023-05-22T02:55:51;96203.91;;;13.26;100.00
57644;BME280;43474;46.510;6.686;2023-05-22T02:58:17;96216.44;;;13.36;100.00
57644;BME280;43474;46.510;6.686;2023-05-22T03:00:43;96217.72;;;13.23;100.00
57644;BME280;43474;46.510;6.686;2023-05-22T03:03:09;96226.47;;;13.18;100.00
57644;BME280;43474;46.510;6.686;2023-05-22T03:05:36;96221.66;;;13.20;100.00
57644;BME280;43474;46.510;6.686;2023-05-22T03:08:02;96217.84;;;13.06;100.00
57644;BME280;43474;46.510;6.686;2023-05-22T03:10:28;96231.69;;;13.03;100.00
57644;BME280;43474;46.510;6.686;2023-05-22T03:12:53;96221.19;;;12.86;100.00
57644;BME280;43474;46.510;6.686;2023-05-22T03:15:19;96201.44;;;12.77;100.00
57644;BME280;43474;46.510;6.686;2023-05-22T03:17:44;96232.16;;;12.95;100.00
57644;BME280;43474;46.510;6.686;2023-05-22T03:20:11;96229.50;;;12.95;100.00
57644;BME280;43474;46.510;6.686;2023-05-22T03:22:40;96210.03;;;12.89;100.00
57644;BME280;43474;46.510;6.686;2023-05-22T03:25:06;96214.84;;;12.92;100.00
57644;BME280;43474;46.510;6.686;2023-05-22T03:27:33;96225.03;;;13.06;100.00
57644;BME280;43474;46.510;6.686;2023-05-22T03:30:00;96219.22;;;13.09;100.00
57644;BME280;43474;46.510;6.686;2023-05-22T03:32:25;96211.22;;;13.09;100.00
57644;BME280;43474;46.510;6.686;2023-05-22T03:34:51;96215.22;;;13.11;100.00
57644;BME280;43474;46.510;6.686;2023-05-22T03:37:16;96215.72;;;13.03;100.00
57644;BME280;43474;46.510;6.686;2023-05-22T03:39:42;96224.19;;;12.95;100.00
57644;BME280;43474;46.510;6.686;2023-05-22T03:42:08;96222.38;;;12.63;100.00
57644;BME280;43474;46.510;6.686;2023-05-22T03:44:33;96237.78;;;12.66;100.00
57644;BME280;43474;46.510;6.686;2023-05-22T03:46:59;96253.25;;;12.70;100.00
57644;BME280;43474;46.510;6.686;2023-05-22T03:49:24;96248.38;;;12.61;100.00
57644;BME280;43474;46.510;6.686;2023-05-22T03:51:50;96240.00;;;12.48;100.00
57644;BME280;43474;46.510;6.686;2023-05-22T03:54:16;96246.59;;;12.40;100.00
57644;BME280;43474;46.510;6.686;2023-05-22T03:56:42;96251.97;;;12.45;100.00
57644;BME280;43474;46.510;6.686;2023-05-22T03:59:08;96255.91;;;12.42;100.00
57644;BME280;43474;46.510;6.686;2023-05-22T04:01:34;96258.25;;;12.34;100.00
57644;BME280;43474;46.510;6.686;2023-05-22T04:04:00;96246.25;;;12.31;100.00
57644;BME280;43474;46.510;6.686;2023-05-22T04:06:26;96245.16;;;12.27;100.00
57644;BME280;43474;46.510;6.686;2023-05-22T04:08:51;96232.69;;;12.33;100.00
57644;BME280;43474;46.510;6.686;2023-05-22T04:11:17;96249.63;;;12.49;100.00
57644;BME280;43474;46.510;6.686;2023-05-22T04:13:44;96251.25;;;12.55;100.00
57644;BME280;43474;46.510;6.686;2023-05-22T04:16:09;96250.94;;;12.51;100.00
57644;BME280;43474;46.510;6.686;2023-05-22T04:18:35;96247.34;;;12.35;100.00
57644;BME280;43474;46.510;6.686;2023-05-22T04:21:00;96245.91;;;12.23;100.00
57644;BME280;43474;46.510;6.686;2023-05-22T04:23:27;96238.59;;;12.35;100.00
57644;BME280;43474;46.510;6.686;2023-05-22T04:25:53;96251.75;;;12.52;100.00
57644;BME280;43474;46.510;6.686;2023-05-22T04:28:19;96252.84;;;12.56;100.00
57644;BME280;43474;46.510;6.686;2023-05-22T04:30:48;96242.47;;;12.54;100.00
57644;BME280;43474;46.510;6.686;2023-05-22T04:33:14;96233.75;;;12.59;100.00
57644;BME280;43474;46.510;6.686;2023-05-22T04:35:40;96255.94;;;12.75;100.00
57644;BME280;43474;46.510;6.686;2023-05-22T04:38:06;96235.13;;;12.66;100.00
57644;BME280;43474;46.510;6.686;2023-05-22T04:40:32;96253.28;;;12.75;100.00
57644;BME280;43474;46.510;6.686;2023-05-22T04:42:58;96261.75;;;12.72;100.00
57644;BME280;43474;46.510;6.686;2023-05-22T04:45:27;96260.41;;;12.69;100.00
57644;BME280;43474;46.510;6.686;2023-05-22T04:47:53;96260.16;;;12.71;100.00
57644;BME280;43474;46.510;6.686;2023-05-22T04:50:20;96256.66;;;12.65;100.00
57644;BME280;43474;46.510;6.686;2023-05-22T04:52:46;96261.66;;;12.61;100.00
57644;BME280;43474;46.510;6.686;2023-05-22T04:55:12;96263.84;;;12.64;100.00
57644;BME280;43474;46.510;6.686;2023-05-22T04:57:41;96263.06;;;12.69;100.00
57644;BME280;43474;46.510;6.686;2023-05-22T05:00:09;96262.00;;;12.70;100.00
57644;BME280;43474;46.510;6.686;2023-05-22T05:02:35;96269.53;;;12.78;100.00
57644;BME280;43474;46.510;6.686;2023-05-22T05:05:01;96271.41;;;12.83;100.00
57644;BME280;43474;46.510;6.686;2023-05-22T05:07:26;96261.78;;;12.77;100.00
57644;BME280;43474;46.510;6.686;2023-05-22T05:09:52;96286.88;;;12.86;100.00
57644;BME280;43474;46.510;6.686;2023-05-22T05:12:17;96287.44;;;12.88;100.00
57644;BME280;43474;46.510;6.686;2023-05-22T05:14:43;96282.47;;;13.02;100.00
57644;BME280;43474;46.510;6.686;2023-05-22T05:17:08;96274.00;;;13.05;100.00
57644;BME280;43474;46.510;6.686;2023-05-22T05:19:34;96278.28;;;13.11;100.00
57644;BME280;43474;46.510;6.686;2023-05-22T05:22:00;96277.09;;;13.29;100.00
57644;BME280;43474;46.510;6.686;2023-05-22T05:24:26;96278.69;;;13.30;100.00
57644;BME280;43474;46.510;6.686;2023-05-22T05:26:51;96285.38;;;13.37;100.00
57644;BME280;43474;46.510;6.686;2023-05-22T05:29:17;96269.94;;;13.34;100.00
57644;BME280;43474;46.510;6.686;2023-05-22T05:31:42;96280.94;;;13.48;100.00
57644;BME280;43474;46.510;6.686;2023-05-22T05:34:08;96272.47;;;13.56;100.00
57644;BME280;43474;46.510;6.686;2023-05-22T05:36:33;96274.66;;;13.69;100.00
57644;BME280;43474;46.510;6.686;2023-05-22T05:39:00;96278.75;;;13.92;100.00
57644;BME280;43474;46.510;6.686;2023-05-22T05:41:25;96272.94;;;14.11;100.00
57644;BME280;43474;46.510;6.686;2023-05-22T05:43:51;96271.41;;;14.40;100.00
57644;BME280;43474;46.510;6.686;2023-05-22T05:46:17;96265.34;;;14.65;100.00
57644;BME280;43474;46.510;6.686;2023-05-22T05:48:43;96276.00;;;14.76;100.00
57644;BME280;43474;46.510;6.686;2023-05-22T05:51:09;96257.09;;;14.67;100.00
57644;BME280;43474;46.510;6.686;2023-05-22T05:53:35;96264.03;;;14.78;100.00
57644;BME280;43474;46.510;6.686;2023-05-22T05:56:02;96270.44;;;14.92;100.00
57644;BME280;43474;46.510;6.686;2023-05-22T05:58:28;96264.28;;;14.97;100.00
57644;BME280;43474;46.510;6.686;2023-05-22T06:00:53;96274.69;;;15.09;100.00
57644;BME280;43474;46.510;6.686;2023-05-22T06:03:19;96275.44;;;15.40;100.00
57644;BME280;43474;46.510;6.686;2023-05-22T06:05:44;96279.38;;;15.73;100.00
57644;BME280;43474;46.510;6.686;2023-05-22T06:08:11;96285.63;;;16.18;100.00
57644;BME280;43474;46.510;6.686;2023-05-22T06:10:38;96284.50;;;16.73;100.00
57644;BME280;43474;46.510;6.686;2023-05-22T06:13:03;96278.00;;;16.85;100.00
57644;BME280;43474;46.510;6.686;2023-05-22T06:15:29;96267.03;;;16.86;100.00
57644;BME280;43474;46.510;6.686;2023-05-22T06:17:56;96285.91;;;17.29;100.00
57644;BME280;43474;46.510;6.686;2023-05-22T06:20:21;96265.00;;;18.27;100.00
57644;BME280;43474;46.510;6.686;2023-05-22T06:22:50;96276.88;;;19.75;100.00
57644;BME280;43474;46.510;6.686;2023-05-22T06:25:16;96279.34;;;20.63;100.00
57644;BME280;43474;46.510;6.686;2023-05-22T06:27:42;96287.00;;;21.59;95.13
57644;BME280;43474;46.510;6.686;2023-05-22T06:30:08;96281.31;;;22.09;93.45
57644;BME280;43474;46.510;6.686;2023-05-22T06:32:34;96277.13;;;22.52;87.02
57644;BME280;43474;46.510;6.686;2023-05-22T06:34:59;96286.53;;;22.80;82.59
57644;BME280;43474;46.510;6.686;2023-05-22T06:37:25;96282.47;;;23.47;83.70
57644;BME280;43474;46.510;6.686;2023-05-22T06:39:50;96278.53;;;23.27;82.07
57644;BME280;43474;46.510;6.686;2023-05-22T06:42:16;96286.41;;;23.76;80.68
57644;BME280;43474;46.510;6.686;2023-05-22T06:44:42;96281.72;;;23.38;78.32
57644;BME280;43474;46.510;6.686;2023-05-22T06:47:07;96284.19;;;23.60;75.88
57644;BME280;43474;46.510;6.686;2023-05-22T06:49:33;96287.56;;;24.04;73.94
57644;BME280;43474;46.510;6.686;2023-05-22T06:51:59;96287.19;;;24.44;70.96
57644;BME280;43474;46.510;6.686;2023-05-22T06:54:24;96284.75;;;24.51;73.33
57644;BME280;43474;46.510;6.686;2023-05-22T06:56:54;96286.81;;;24.54;73.06
57644;BME280;43474;46.510;6.686;2023-05-22T06:59:19;96278.22;;;24.52;70.92
57644;BME280;43474;46.510;6.686;2023-05-22T07:01:48;96279.63;;;24.79;68.54
57644;BME280;43474;46.510;6.686;2023-05-22T07:04:13;96296.94;;;24.87;68.28
57644;BME280;43474;46.510;6.686;2023-05-22T07:06:39;96292.34;;;24.99;67.21
57644;BME280;43474;46.510;6.686;2023-05-22T07:09:06;96291.84;;;24.85;69.36
57644;BME280;43474;46.510;6.686;2023-05-22T07:11:32;96286.69;;;24.71;67.38
57644;BME280;43474;46.510;6.686;2023-05-22T07:13:58;96285.91;;;24.92;69.70
57644;BME280;43474;46.510;6.686;2023-05-22T07:16:24;96302.47;;;25.32;67.92
57644;BME280;43474;46.510;6.686;2023-05-22T07:18:49;96300.63;;;25.03;65.14
57644;BME280;43474;46.510;6.686;2023-05-22T07:21:15;96298.69;;;25.24;66.21
57644;BME280;43474;46.510;6.686;2023-05-22T07:23:40;96302.97;;;25.92;64.53
57644;BME280;43474;46.510;6.686;2023-05-22T07:26:06;96297.41;;;26.25;61.41
57644;BME280;43474;46.510;6.686;2023-05-22T07:28:32;96297.97;;;26.30;61.40
57644;BME280;43474;46.510;6.686;2023-05-22T07:30:58;96297.41;;;26.00;56.33
57644;BME280;43474;46.510;6.686;2023-05-22T07:33:24;96306.59;;;26.33;60.32
57644;BME280;43474;46.510;6.686;2023-05-22T07:35:50;96295.59;;;26.04;58.23
57644;BME280;43474;46.510;6.686;2023-05-22T07:38:16;96295.72;;;26.08;60.65
57644;BME280;43474;46.510;6.686;2023-05-22T07:40:42;96300.47;;;26.11;58.89
57644;BME280;43474;46.510;6.686;2023-05-22T07:43:08;96302.41;;;25.86;61.09
57644;BME280;43474;46.510;6.686;2023-05-22T07:45:34;96301.22;;;25.75;58.26
57644;BME280;43474;46.510;6.686;2023-05-22T07:47:59;96302.38;;;26.60;52.65
57644;BME280;43474;46.510;6.686;2023-05-22T07:50:26;96278.28;;;26.21;60.18
57644;BME280;43474;46.510;6.686;2023-05-22T07:52:54;96292.31;;;26.48;55.36
57644;BME280;43474;46.510;6.686;2023-05-22T07:55:20;96303.97;;;27.13;51.16
57644;BME280;43474;46.510;6.686;2023-05-22T07:57:45;96287.91;;;26.43;54.62
57644;BME280;43474;46.510;6.686;2023-05-22T08:00:12;96292.88;;;26.41;57.86
57644;BME280;43474;46.510;6.686;2023-05-22T08:02:39;96290.59;;;26.68;57.54
57644;BME280;43474;46.510;6.686;2023-05-22T08:05:06;96286.19;;;26.63;55.42
57644;BME280;43474;46.510;6.686;2023-05-22T08:07:32;96282.72;;;26.26;52.61
57644;BME280;43474;46.510;6.686;2023-05-22T08:09:58;96296.28;;;26.50;55.39
57644;BME280;43474;46.510;6.686;2023-05-22T08:12:23;96286.69;;;26.16;54.23
57644;BME280;43474;46.510;6.686;2023-05-22T08:14:49;96286.66;;;26.41;51.83
57644;BME280;43474;46.510;6.686;2023-05-22T08:17:14;96298.91;;;26.87;52.76
57644;BME280;43474;46.510;6.686;2023-05-22T08:19:40;96288.97;;;26.79;53.33
57644;BME280;43474;46.510;6.686;2023-05-22T08:22:06;96293.13;;;26.36;52.96
57644;BME280;43474;46.510;6.686;2023-05-22T08:24:31;96290.47;;;26.76;52.00
57644;BME280;43474;46.510;6.686;2023-05-22T08:26:57;96278.56;;;26.69;51.57
57644;BME280;43474;46.510;6.686;2023-05-22T08:29:23;96274.38;;;26.71;50.81
57644;BME280;43474;46.510;6.686;2023-05-22T08:31:49;96281.41;;;26.60;51.61
57644;BME280;43474;46.510;6.686;2023-05-22T08:34:14;96280.06;;;26.54;49.97
57644;BME280;43474;46.510;6.686;2023-05-22T08:36:40;96275.47;;;26.83;52.65
57644;BME280;43474;46.510;6.686;2023-05-22T08:39:08;96267.44;;;26.86;51.82
57644;BME280;43474;46.510;6.686;2023-05-22T08:41:33;96268.88;;;26.31;50.60
57644;BME280;43474;46.510;6.686;2023-05-22T08:43:59;96264.00;;;25.75;52.10
57644;BME280;43474;46.510;6.686;2023-05-22T08:46:25;96267.13;;;25.65;53.24
57644;BME280;43474;46.510;6.686;2023-05-22T08:48:55;96281.56;;;26.15;50.60
57644;BME280;43474;46.510;6.686;2023-05-22T08:51:25;96275.13;;;25.83;51.25
57644;BME280;43474;46.510;6.686;2023-05-22T08:53:51;96270.69;;;26.15;55.76
57644;BME280;43474;46.510;6.686;2023-05-22T08:56:20;96274.31;;;26.43;50.93
57644;BME280;43474;46.510;6.686;2023-05-22T08:58:46;96261.28;;;26.49;48.74
57644;BME280;43474;46.510;6.686;2023-05-22T09:01:12;96271.25;;;25.84;52.84
57644;BME280;43474;46.510;6.686;2023-05-22T09:03:39;96268.09;;;25.82;53.43
57644;BME280;43474;46.510;6.686;2023-05-22T09:06:05;96258.59;;;26.00;55.08
57644;BME280;43474;46.510;6.686;2023-05-22T09:08:36;96268.22;;;26.10;52.74
57644;BME280;43474;46.510;6.686;2023-05-22T09:11:02;96276.75;;;25.63;52.23
57644;BME280;43474;46.510;6.686;2023-05-22T09:13:29;96257.25;;;25.82;52.60
57644;BME280;43474;46.510;6.686;2023-05-22T09:16:09;96256.81;;;25.92;54.04
57644;BME280;43474;46.510;6.686;2023-05-22T09:18:36;96253.41;;;25.83;52.37
57644;BME280;43474;46.510;6.686;2023-05-22T09:21:03;96246.50;;;25.27;52.23
57644;BME280;43474;46.510;6.686;2023-05-22T09:23:28;96243.94;;;25.43;53.23
57644;BME280;43474;46.510;6.686;2023-05-22T09:25:55;96254.84;;;25.80;55.20
57644;BME280;43474;46.510;6.686;2023-05-22T09:28:22;96253.41;;;25.37;52.30
57644;BME280;43474;46.510;6.686;2023-05-22T09:30:52;96260.19;;;25.76;53.69
57644;BME280;43474;46.510;6.686;2023-05-22T09:33:19;96256.41;;;25.57;56.10
57644;BME280;43474;46.510;6.686;2023-05-22T09:35:45;96243.94;;;25.43;56.16
57644;BME280;43474;46.510;6.686;2023-05-22T09:38:12;96257.75;;;25.63;56.48
57644;BME280;43474;46.510;6.686;2023-05-22T09:40:39;96248.25;;;25.57;58.53
57644;BME280;43474;46.510;6.686;2023-05-22T09:43:10;96252.00;;;25.64;56.86
57644;BME280;43474;46.510;6.686;2023-05-22T09:45:37;96256.31;;;25.90;60.35
57644;BME280;43474;46.510;6.686;2023-05-22T09:48:07;96257.91;;;25.78;56.90
57644;BME280;43474;46.510;6.686;2023-05-22T09:50:34;96252.00;;;25.64;56.21
57644;BME280;43474;46.510;6.686;2023-05-22T09:53:01;96252.56;;;25.70;55.99
57644;BME280;43474;46.510;6.686;2023-05-22T09:55:27;96255.09;;;25.30;56.58
57644;BME280;43474;46.510;6.686;2023-05-22T09:57:54;96253.06;;;25.39;56.55
57644;BME280;43474;46.510;6.686;2023-05-22T10:00:21;96239.34;;;25.68;59.03
57644;BME280;43474;46.510;6.686;2023-05-22T10:02:52;96225.97;;;25.63;59.62
57644;BME280;43474;46.510;6.686;2023-05-22T10:05:18;96238.25;;;25.82;57.55
57644;BME280;43474;46.510;6.686;2023-05-22T10:07:49;96242.06;;;25.81;57.34
57644;BME280;43474;46.510;6.686;2023-05-22T10:10:25;96231.69;;;25.83;55.61
57644;BME280;43474;46.510;6.686;2023-05-22T10:13:02;96203.69;;;25.58;55.16
57644;BME280;43474;46.510;6.686;2023-05-22T10:15:34;96232.47;;;26.08;57.03
57644;BME280;43474;46.510;6.686;2023-05-22T10:18:00;96233.50;;;25.91;57.23
57644;BME280;43474;46.510;6.686;2023-05-22T10:20:27;96217.97;;;25.67;56.89
57644;BME280;43474;46.510;6.686;2023-05-22T10:22:54;96213.63;;;25.66;58.00
57644;BME280;43474;46.510;6.686;2023-05-22T10:25:20;96215.69;;;25.69;55.36
57644;BME280;43474;46.510;6.686;2023-05-22T10:27:47;96225.34;;;25.78;60.17
57644;BME280;43474;46.510;6.686;2023-05-22T10:32:52;96216.28;;;26.11;61.15
57644;BME280;43474;46.510;6.686;2023-05-22T10:38:13;96221.91;;;25.69;61.60
57644;BME280;43474;46.510;6.686;2023-05-22T10:40:45;96226.25;;;25.83;66.37
57644;BME280;43474;46.510;6.686;2023-05-22T10:43:11;96225.47;;;25.82;62.67
57644;BME280;43474;46.510;6.686;2023-05-22T10:45:37;96207.00;;;25.51;60.34
57644;BME280;43474;46.510;6.686;2023-05-22T10:48:07;96231.66;;;25.95;60.05
57644;BME280;43474;46.510;6.686;2023-05-22T10:50:36;96233.50;;;25.91;61.06
57644;BME280;43474;46.510;6.686;2023-05-22T10:53:24;96218.63;;;25.64;62.79
57644;BME280;43474;46.510;6.686;2023-05-22T10:55:54;96227.91;;;25.63;65.03
57644;BME280;43474;46.510;6.686;2023-05-22T10:58:32;96217.25;;;25.70;64.68
57644;BME280;43474;46.510;6.686;2023-05-22T11:01:14;96202.66;;;25.50;64.93
57644;BME280;43474;46.510;6.686;2023-05-22T11:06:38;96209.44;;;25.44;65.20
57644;BME280;43474;46.510;6.686;2023-05-22T11:09:39;96206.06;;;25.59;63.42
57644;BME280;43474;46.510;6.686;2023-05-22T11:12:24;96206.59;;;26.38;67.01
57644;BME280;43474;46.510;6.686;2023-05-22T11:15:04;96195.84;;;26.29;64.27
57644;BME280;43474;46.510;6.686;2023-05-22T11:17:32;96191.16;;;26.54;61.17
57644;BME280;43474;46.510;6.686;2023-05-22T11:20:20;96199.47;;;26.74;57.92
57644;BME280;43474;46.510;6.686;2023-05-22T11:23:04;96192.38;;;26.69;57.96
57644;BME280;43474;46.510;6.686;2023-05-22T11:25:36;96199.78;;;26.57;58.33
57644;BME280;43474;46.510;6.686;2023-05-22T11:28:03;96189.41;;;26.74;60.08
57644;BME280;43474;46.510;6.686;2023-05-22T11:30:30;96194.31;;;26.16;56.63
57644;BME280;43474;46.510;6.686;2023-05-22T11:32:57;96188.97;;;26.32;58.58
57644;BME280;43474;46.510;6.686;2023-05-22T11:35:23;96186.25;;;26.20;55.99
57644;BME280;43474;46.510;6.686;2023-05-22T11:37:50;96183.41;;;26.28;56.27
57644;BME280;43474;46.510;6.686;2023-05-22T11:40:20;96180.91;;;26.36;59.04
57644;BME280;43474;46.510;6.686;2023-05-22T11:42:46;96177.50;;;26.39;55.68
57644;BME280;43474;46.510;6.686;2023-05-22T11:45:13;96174.09;;;26.42;56.18
57644;BME280;43474;46.510;6.686;2023-05-22T11:47:39;96174.88;;;26.54;58.96
57644;BME280;43474;46.510;6.686;2023-05-22T11:50:08;96174.91;;;26.70;59.84
57644;BME280;43474;46.510;6.686;2023-05-22T11:52:35;96146.28;;;26.89;62.68
57644;BME280;43474;46.510;6.686;2023-05-22T11:55:03;96156.38;;;27.04;60.57
57644;BME280;43474;46.510;6.686;2023-05-22T11:57:30;96157.66;;;26.50;57.08
57644;BME280;43474;46.510;6.686;2023-05-22T11:59:57;96151.59;;;26.69;62.80
57644;BME280;43474;46.510;6.686;2023-05-22T12:02:23;96155.75;;;26.51;58.25
57644;BME280;43474;46.510;6.686;2023-05-22T12:04:57;96152.38;;;26.42;60.98
57644;BME280;43474;46.510;6.686;2023-05-22T12:07:24;96146.16;;;26.69;62.34
57644;BME280;43474;46.510;6.686;2023-05-22T12:09:51;96156.59;;;26.67;56.67
57644;BME280;43474;46.510;6.686;2023-05-22T12:12:17;96149.66;;;26.42;60.16
57644;BME280;43474;46.510;6.686;2023-05-22T12:14:44;96151.28;;;26.18;59.43
57644;BME280;43474;46.510;6.686;2023-05-22T12:17:13;96151.66;;;26.17;58.08
57644;BME280;43474;46.510;6.686;2023-05-22T12:19:40;96150.31;;;26.39;61.85
57644;BME280;43474;46.510;6.686;2023-05-22T12:22:10;96147.59;;;26.11;58.92
57644;BME280;43474;46.510;6.686;2023-05-22T12:24:40;96143.38;;;26.13;60.12
57644;BME280;43474;46.510;6.686;2023-05-22T12:27:08;96145.34;;;26.41;59.88
57644;BME280;43474;46.510;6.686;2023-05-22T12:29:37;96147.53;;;26.23;54.05
57644;BME280;43474;46.510;6.686;2023-05-22T12:32:05;96141.72;;;26.37;56.95
57644;BME280;43474;46.510;6.686;2023-05-22T12:34:33;96138.25;;;26.24;57.21
57644;BME280;43474;46.510;6.686;2023-05-22T12:36:59;96128.66;;;26.14;61.87
57644;BME280;43474;46.510;6.686;2023-05-22T12:39:26;96132.63;;;26.17;55.44
57644;BME280;43474;46.510;6.686;2023-05-22T12:41:52;96118.81;;;26.22;60.22
57644;BME280;43474;46.510;6.686;2023-05-22T12:44:17;96126.91;;;26.34;59.74
57644;BME280;43474;46.510;6.686;2023-05-22T12:46:43;96126.78;;;26.30;60.40
57644;BME280;43474;46.510;6.686;2023-05-22T12:49:09;96115.94;;;26.30;63.52
57644;BME280;43474;46.510;6.686;2023-05-22T12:51:34;96129.63;;;26.46;58.93
57644;BME280;43474;46.510;6.686;2023-05-22T12:54:01;96119.59;;;26.78;61.71
57644;BME280;43474;46.510;6.686;2023-05-22T12:56:28;96121.00;;;26.72;61.95
57644;BME280;43474;46.510;6.686;2023-05-22T12:58:54;96125.91;;;26.67;60.96
57644;BME280;43474;46.510;6.686;2023-05-22T13:01:20;96108.03;;;26.82;63.04
57644;BME280;43474;46.510;6.686;2023-05-22T13:03:46;96115.84;;;26.83;61.08
57644;BME280;43474;46.510;6.686;2023-05-22T13:06:12;96123.47;;;26.77;57.68
57644;BME280;43474;46.510;6.686;2023-05-22T13:08:38;96113.66;;;26.89;58.16
57644;BME280;43474;46.510;6.686;2023-05-22T13:11:03;96112.69;;;26.97;59.69
57644;BME280;43474;46.510;6.686;2023-05-22T13:13:29;96098.66;;;26.95;59.27
57644;BME280;43474;46.510;6.686;2023-05-22T13:15:55;96101.66;;;27.05;58.54
57644;BME280;43474;46.510;6.686;2023-05-22T13:18:20;96111.81;;;26.93;58.19